Time;durP1;ratioP1;P1;durP2;ratioP2;P2;SDS_P1;SDS_P2;PMS_P1;PMS_P2;Temp;Humidity;BMP_temperature;BMP_pressure;BME280_temperature;BME280_humidity;BME280_pressure;Samples;Min_cycle;Max_cycle;Signal;HPM_P1;HPM_P2
2022/05/14 00:02:01;;;;;;;14.10;8.50;;;;;;;10.16;63.81;98138.96;104682;1287;24289;-83
2022/05/14 00:04:29;;;;;;;11.40;7.70;;;;;;;10.16;64.86;98138.33;104984;1287;25340;-84
2022/05/14 00:06:58;;;;;;;11.90;7.80;;;;;;;9.97;65.52;98143.23;104924;1287;22673;-84
2022/05/14 00:09:26;;;;;;;13.00;8.20;;;;;;;9.85;65.25;98142.16;104931;1287;22629;-85
2022/05/14 00:14:41;;;;;;;13.20;8.70;;;;;;;9.52;66.33;98147.21;104970;1287;25430;-82
2022/05/14 00:17:09;;;;;;;11.50;7.80;;;;;;;9.48;66.37;98151.77;104926;1287;24393;-84
2022/05/14 00:19:37;;;;;;;9.60;8.40;;;;;;;9.41;66.73;98153.94;104850;1289;25517;-85
2022/05/14 00:22:05;;;;;;;10.50;9.10;;;;;;;9.31;67.17;98159.99;104908;1287;25433;-83
2022/05/14 00:24:33;;;;;;;13.40;9.30;;;;;;;9.23;67.33;98159.60;104912;1287;24143;-83
2022/05/14 00:27:01;;;;;;;12.40;9.30;;;;;;;9.15;68.22;98157.69;104940;1288;23797;-84
2022/05/14 00:29:30;;;;;;;12.30;7.40;;;;;;;9.04;68.40;98155.79;104850;1287;24229;-85
2022/05/14 00:31:58;;;;;;;14.80;8.20;;;;;;;8.97;68.82;98157.46;104906;1287;25003;-85
2022/05/14 00:34:26;;;;;;;12.80;9.00;;;;;;;8.91;69.54;98157.52;105126;1287;22578;-84
2022/05/14 00:36:54;;;;;;;11.10;8.90;;;;;;;8.86;70.21;98158.47;105064;1287;24391;-82
2022/05/14 00:39:22;;;;;;;13.60;9.00;;;;;;;8.77;70.18;98160.41;105277;1288;22631;-82
2022/05/14 00:41:50;;;;;;;9.40;8.20;;;;;;;8.68;70.33;98158.70;104717;1288;22515;-85
2022/05/14 00:44:18;;;;;;;12.50;8.10;;;;;;;8.61;71.06;98159.83;104722;1287;22756;-84
2022/05/14 00:46:58;;;;;;;10.70;7.50;;;;;;;8.52;70.14;98158.00;104564;1288;22636;-83
2022/05/14 00:49:29;;;;;;;13.00;9.00;;;;;;;8.50;70.70;98154.05;104741;1287;22640;-81
2022/05/14 00:51:58;;;;;;;12.50;9.40;;;;;;;8.49;70.87;98158.14;104781;1287;25484;-85
2022/05/14 00:54:36;;;;;;;16.60;9.70;;;;;;;8.42;71.86;98161.67;105121;1288;22573;-83
2022/05/14 00:57:10;;;;;;;11.50;8.30;;;;;;;8.35;72.10;98155.02;105059;1288;22617;-84
2022/05/14 00:59:39;;;;;;;12.40;8.40;;;;;;;8.29;71.89;98154.69;105077;1287;23018;-83
2022/05/14 01:02:07;;;;;;;9.90;8.40;;;;;;;8.25;72.06;98157.98;104931;1287;22560;-83
2022/05/14 01:04:39;;;;;;;12.90;9.80;;;;;;;8.18;72.74;98164.40;104891;1289;22650;-84
2022/05/14 01:07:12;;;;;;;16.90;9.40;;;;;;;8.09;72.24;98166.42;105061;1287;24659;-83
2022/05/14 01:09:44;;;;;;;12.30;10.00;;;;;;;8.04;72.19;98160.13;105056;1287;22712;-84
2022/05/14 01:12:14;;;;;;;12.60;8.50;;;;;;;7.99;72.89;98156.44;105022;1288;22732;-82
2022/05/14 01:14:43;;;;;;;12.60;8.50;;;;;;;7.95;73.58;98156.83;105231;1287;22568;-83
2022/05/14 01:17:11;;;;;;;10.80;9.20;;;;;;;7.91;74.11;98155.95;105045;1287;22620;-83
2022/05/14 01:19:42;;;;;;;11.10;9.30;;;;;;;7.82;74.55;98157.52;104853;1289;22769;-82
2022/05/14 01:22:29;;;;;;;11.90;9.10;;;;;;;7.74;73.91;98156.65;104979;1287;22548;-85
2022/05/14 01:28:37;;;;;;;12.00;8.80;;;;;;;7.60;74.52;98159.84;105619;1287;22683;-83
2022/05/14 01:31:06;;;;;;;10.80;8.90;;;;;;;7.59;74.63;98160.39;105255;1287;22598;-83
2022/05/14 01:33:36;;;;;;;11.80;9.90;;;;;;;7.56;74.64;98160.23;105068;1287;24211;-84
2022/05/14 01:36:06;;;;;;;14.00;9.70;;;;;;;7.49;74.68;98163.48;104868;1287;25388;-85
2022/05/14 01:38:35;;;;;;;19.20;10.80;;;;;;;7.41;74.19;98159.52;104874;1289;25486;-84
2022/05/14 01:41:03;;;;;;;11.20;9.90;;;;;;;7.38;74.61;98162.59;105023;1287;22710;-84
2022/05/14 01:43:31;;;;;;;12.20;8.60;;;;;;;7.36;75.00;98162.05;104668;1288;22838;-84
2022/05/14 01:46:00;;;;;;;14.20;9.50;;;;;;;7.33;75.41;98164.10;104577;1288;22738;-84
2022/05/14 01:48:29;;;;;;;13.90;11.70;;;;;;;7.27;75.03;98166.58;104670;1287;22777;-84
2022/05/14 01:50:58;;;;;;;16.50;11.00;;;;;;;7.20;75.39;98168.09;104682;1287;23229;-83
2022/05/14 01:53:26;;;;;;;14.50;11.60;;;;;;;7.15;75.61;98164.66;104662;1289;22601;-82
2022/05/14 01:55:54;;;;;;;15.00;11.40;;;;;;;7.13;76.15;98163.32;105711;1287;22498;-82
2022/05/14 01:58:37;;;;;;;14.10;12.70;;;;;;;7.12;76.30;98163.95;107510;1287;22558;-82
2022/05/14 02:01:22;;;;;;;14.70;12.50;;;;;;;7.09;76.38;98161.55;105149;1287;22562;-84
2022/05/14 02:03:54;;;;;;;14.50;11.30;;;;;;;7.01;76.00;98161.28;104906;1289;22541;-85
2022/05/14 02:06:24;;;;;;;14.70;10.70;;;;;;;6.95;76.20;98164.67;104894;1289;22563;-85
2022/05/14 02:08:52;;;;;;;15.50;10.60;;;;;;;6.93;76.49;98164.93;104943;1289;22572;-85
2022/05/14 02:11:21;;;;;;;14.90;10.90;;;;;;;6.91;76.61;98161.45;105104;1289;23266;-84
2022/05/14 02:13:54;;;;;;;14.90;11.00;;;;;;;6.89;76.89;98166.80;104827;1287;23296;-85
2022/05/14 02:16:22;;;;;;;14.70;10.60;;;;;;;6.85;76.92;98164.79;104703;1288;22547;-84
2022/05/14 02:18:50;;;;;;;17.00;10.90;;;;;;;6.80;77.12;98161.94;106472;1287;22870;-84
2022/05/14 02:21:20;;;;;;;17.50;9.50;;;;;;;6.77;77.65;98159.20;105053;1287;24360;-83
2022/05/14 02:23:49;;;;;;;13.60;10.00;;;;;;;6.74;77.49;98160.42;104861;1287;22711;-86
2022/05/14 02:26:17;;;;;;;14.70;10.40;;;;;;;6.72;77.45;98156.25;107919;1287;22564;-83
2022/05/14 02:28:45;;;;;;;13.20;10.80;;;;;;;6.68;76.83;98151.11;107587;1287;22650;-83
2022/05/14 02:31:13;;;;;;;13.40;10.10;;;;;;;6.68;76.94;98155.94;108056;1287;22582;-84
2022/05/14 02:33:42;;;;;;;15.80;9.90;;;;;;;6.69;76.92;98154.95;105249;1287;25373;-84
2022/05/14 02:36:10;;;;;;;15.30;9.90;;;;;;;6.73;77.56;98155.66;105256;1287;23196;-83
2022/05/14 02:38:39;;;;;;;12.60;10.80;;;;;;;6.78;77.77;98157.31;104952;1288;22662;-85
2022/05/14 02:41:08;;;;;;;14.10;12.30;;;;;;;6.78;77.81;98153.26;105354;1287;22704;-86
2022/05/14 02:43:36;;;;;;;15.60;12.00;;;;;;;6.76;78.53;98153.73;105155;1287;22566;-84
2022/05/14 02:46:06;;;;;;;17.40;11.40;;;;;;;6.73;78.69;98149.56;104660;1288;22677;-84
2022/05/14 02:48:36;;;;;;;17.50;10.80;;;;;;;6.72;78.78;98150.47;104972;1287;24460;-85
2022/05/14 02:51:05;;;;;;;17.30;12.00;;;;;;;6.72;78.42;98154.64;104769;1289;22785;-85
2022/05/14 02:53:33;;;;;;;14.10;11.10;;;;;;;6.73;77.97;98159.30;104708;1287;22732;-83
2022/05/14 02:56:01;;;;;;;18.60;12.40;;;;;;;6.73;77.84;98161.02;104819;1287;22723;-84
2022/05/14 03:01:18;;;;;;;26.20;23.00;;;;;;;6.76;77.73;98166.64;105083;1287;23299;-84
2022/05/14 03:03:46;;;;;;;20.80;11.60;;;;;;;6.79;77.47;98168.48;104526;1287;22598;-85
2022/05/14 03:06:14;;;;;;;12.70;10.70;;;;;;;6.80;77.50;98167.46;104858;1287;22674;-84
2022/05/14 03:08:42;;;;;;;14.70;12.90;;;;;;;6.78;77.46;98165.69;104901;1287;22642;-84
2022/05/14 03:11:10;;;;;;;13.40;11.90;;;;;;;6.75;77.50;98165.89;104889;1287;25376;-84
2022/05/14 03:13:38;;;;;;;14.20;11.40;;;;;;;6.72;77.40;98166.44;105022;1287;22573;-84
2022/05/14 03:16:06;;;;;;;15.30;10.70;;;;;;;6.68;77.29;98173.29;104801;1289;22704;-83
2022/05/14 03:18:35;;;;;;;12.90;10.20;;;;;;;6.68;77.45;98172.48;104929;1287;22566;-85
2022/05/14 03:21:03;;;;;;;18.50;10.90;;;;;;;6.68;77.87;98172.53;104892;1289;22624;-84
2022/05/14 03:23:31;;;;;;;14.00;12.40;;;;;;;6.67;78.49;98168.73;104958;1288;25346;-85
2022/05/14 03:25:59;;;;;;;14.50;11.30;;;;;;;6.64;78.51;98168.08;105047;1287;25092;-83
2022/05/14 03:28:27;;;;;;;12.80;11.50;;;;;;;6.60;78.40;98164.81;104663;1288;22561;-85
2022/05/14 03:30:57;;;;;;;15.80;12.80;;;;;;;6.66;78.20;98170.92;104660;1287;24076;-83
2022/05/14 03:33:25;;;;;;;17.00;11.30;;;;;;;6.81;78.31;98169.80;104639;1288;22597;-84
2022/05/14 03:35:53;;;;;;;30.50;27.30;;;;;;;6.98;77.94;98172.21;104927;1287;22873;-85
2022/05/14 03:38:23;;;;;;;17.40;13.90;;;;;;;7.12;77.82;98180.59;104996;1287;22653;-84
2022/05/14 03:40:50;;;;;;;15.20;11.90;;;;;;;7.26;77.62;98178.59;105164;1287;22583;-83
2022/05/14 03:43:18;;;;;;;17.40;14.60;;;;;;;7.32;78.03;98178.79;104969;1286;24635;-84
2022/05/14 03:45:46;;;;;;;17.00;13.20;;;;;;;7.31;78.39;98177.88;105108;1288;24441;-85
2022/05/14 03:48:14;;;;;;;17.40;11.80;;;;;;;7.32;78.12;98176.38;104950;1287;25488;-83
2022/05/14 03:50:42;;;;;;;14.90;11.90;;;;;;;7.38;77.93;98175.61;104917;1287;25430;-83
2022/05/14 03:53:11;;;;;;;15.70;12.60;;;;;;;7.45;78.25;98179.52;104649;1287;22579;-82
2022/05/14 03:55:40;;;;;;;15.50;12.10;;;;;;;7.50;78.17;98178.70;105013;1287;22679;-84
2022/05/14 03:58:08;;;;;;;15.50;12.80;;;;;;;7.56;78.06;98180.95;105299;1287;22631;-86
2022/05/14 04:00:36;;;;;;;16.20;11.60;;;;;;;7.63;77.97;98184.67;105001;1288;24428;-86
2022/05/14 04:03:05;;;;;;;19.30;12.60;;;;;;;7.72;77.91;98182.29;105483;1287;25368;-85
2022/05/14 04:05:33;;;;;;;23.40;12.60;;;;;;;7.89;77.87;98183.69;105424;1287;22587;-83
2022/05/14 04:08:01;;;;;;;18.70;12.90;;;;;;;8.06;77.97;98187.11;105122;1289;24222;-83
2022/05/14 04:10:30;;;;;;;18.60;12.30;;;;;;;8.21;78.00;98190.27;105853;1289;22662;-85
2022/05/14 04:12:59;;;;;;;19.60;12.10;;;;;;;8.35;77.88;98191.50;104940;1287;24433;-85
2022/05/14 04:15:27;;;;;;;18.60;13.70;;;;;;;8.48;77.81;98190.38;104834;1289;22735;-86
2022/05/14 04:17:55;;;;;;;18.00;14.10;;;;;;;8.59;77.78;98190.79;104809;1289;25500;-84
2022/05/14 04:20:23;;;;;;;20.00;16.40;;;;;;;8.72;77.69;98193.02;104804;1288;22891;-84
2022/05/14 04:22:51;;;;;;;20.30;16.30;;;;;;;8.89;77.88;98198.43;104877;1288;22567;-85
2022/05/14 04:25:19;;;;;;;18.40;16.10;;;;;;;9.08;77.52;98199.15;104714;1289;24029;-83
2022/05/14 04:27:54;;;;;;;;;;;;;;;9.27;77.74;98204.09;104824;1287;22575;-83
2022/05/14 04:30:22;;;;;;;23.80;18.20;;;;;;;9.44;77.74;98206.79;104869;1288;24388;-84
2022/05/14 04:32:50;;;;;;;21.60;17.50;;;;;;;9.61;77.63;98205.66;104869;1289;22569;-84
2022/05/14 04:35:20;;;;;;;23.50;17.00;;;;;;;9.77;77.65;98207.75;104866;1289;22791;-85
2022/05/14 04:37:48;;;;;;;22.90;14.90;;;;;;;9.94;77.37;98207.08;104919;1287;22692;-84
2022/05/14 04:40:16;;;;;;;22.20;15.50;;;;;;;10.13;77.19;98206.75;104926;1287;25615;-84
2022/05/14 04:42:44;;;;;;;20.60;14.10;;;;;;;10.29;77.30;98205.93;104863;1287;22733;-84
2022/05/14 04:45:13;;;;;;;20.70;14.10;;;;;;;10.45;77.32;98207.08;104874;1290;22637;-83
2022/05/14 04:47:44;;;;;;;21.10;15.00;;;;;;;10.61;76.95;98209.17;104931;1287;22626;-84
2022/05/14 04:50:14;;;;;;;18.30;15.40;;;;;;;10.75;76.39;98211.56;104514;1289;22573;-83
2022/05/14 04:52:42;;;;;;;20.30;13.80;;;;;;;10.89;76.33;98210.88;104584;1288;22904;-84
2022/05/14 04:55:12;;;;;;;21.40;13.30;;;;;;;11.04;76.08;98210.16;104804;1287;22567;-84
2022/05/14 04:57:43;;;;;;;18.20;13.10;;;;;;;11.21;75.74;98208.86;104820;1289;22630;-85
2022/05/14 05:00:14;;;;;;;16.70;13.90;;;;;;;11.34;75.15;98208.10;104732;1287;22624;-85
2022/05/14 05:05:30;;;;;;;17.30;13.10;;;;;;;11.59;74.35;98213.48;104915;1287;25489;-84
2022/05/14 05:07:58;;;;;;;16.10;13.40;;;;;;;11.69;73.89;98206.89;105069;1287;22583;-84
2022/05/14 05:10:27;;;;;;;18.10;13.10;;;;;;;11.80;73.54;98210.15;105014;1287;22559;-83
2022/05/14 05:12:55;;;;;;;15.80;12.70;;;;;;;11.90;72.73;98210.54;104890;1289;22674;-83
2022/05/14 05:15:23;;;;;;;18.80;13.30;;;;;;;12.00;72.46;98212.66;104916;1288;22701;-84
2022/05/14 05:17:51;;;;;;;17.70;13.70;;;;;;;12.09;72.16;98215.08;105072;1287;22876;-84
2022/05/14 05:20:19;;;;;;;16.60;12.50;;;;;;;12.19;71.82;98209.42;105081;1287;25375;-84
2022/05/14 05:22:48;;;;;;;17.90;12.80;;;;;;;12.34;72.15;98208.74;104877;1287;22703;-84
2022/05/14 05:25:17;;;;;;;18.60;10.80;;;;;;;12.52;72.36;98204.95;104957;1287;22747;-83
2022/05/14 05:27:46;;;;;;;14.80;9.60;;;;;;;12.73;72.16;98205.13;104774;1287;22604;-83
2022/05/14 05:30:14;;;;;;;18.70;10.30;;;;;;;12.90;69.06;98210.24;105098;1287;23362;-83
2022/05/14 05:32:43;;;;;;;18.80;9.30;;;;;;;13.00;68.20;98209.49;105055;1287;24229;-83
2022/05/14 05:35:11;;;;;;;14.60;8.80;;;;;;;13.08;66.84;98206.91;104924;1287;22769;-83
2022/05/14 05:37:45;;;;;;;13.10;8.40;;;;;;;13.19;67.00;98207.62;105027;1288;22567;-84
2022/05/14 05:40:14;;;;;;;15.40;7.20;;;;;;;13.31;67.33;98207.19;104956;1287;22796;-82
2022/05/14 05:42:44;;;;;;;12.20;6.80;;;;;;;13.45;67.04;98205.23;105267;1287;22840;-83
2022/05/14 05:45:15;;;;;;;15.60;7.00;;;;;;;13.54;66.29;98205.58;104922;1287;22896;-85
2022/05/14 05:47:44;;;;;;;16.70;6.60;;;;;;;13.60;64.94;98202.78;105049;1288;22594;-85
2022/05/14 05:50:12;;;;;;;9.60;6.30;;;;;;;13.64;65.23;98203.91;105025;1288;25405;-83
2022/05/14 05:52:40;;;;;;;10.30;6.00;;;;;;;13.73;65.82;98204.66;104870;1289;22569;-84
2022/05/14 05:57:55;;;;;;;12.50;5.80;;;;;;;13.90;63.92;98209.89;105036;1288;23305;-83
2022/05/14 06:00:28;;;;;;;9.30;5.50;;;;;;;13.98;62.85;98212.43;105000;1287;22620;-84
2022/05/14 06:02:57;;;;;;;11.30;5.40;;;;;;;14.02;62.51;98215.30;104972;1287;22579;-83
2022/05/14 06:05:26;;;;;;;13.10;5.60;;;;;;;14.08;62.46;98214.16;105068;1287;22654;-82
2022/05/14 06:07:54;;;;;;;13.60;5.20;;;;;;;14.15;61.10;98209.20;104971;1287;25228;-84
2022/05/14 06:10:23;;;;;;;8.70;5.20;;;;;;;14.19;61.08;98209.73;104970;1287;25679;-82
2022/05/14 06:12:52;;;;;;;10.40;5.70;;;;;;;14.21;60.64;98209.07;104818;1287;22565;-82
2022/05/14 06:15:20;;;;;;;9.10;5.40;;;;;;;14.28;61.18;98204.15;104948;1287;22566;-84
2022/05/14 06:17:51;;;;;;;11.30;5.40;;;;;;;14.39;62.09;98195.27;104936;1287;22763;-83
2022/05/14 06:20:19;;;;;;;13.00;6.50;;;;;;;14.50;60.82;98191.77;105071;1287;23046;-82
2022/05/14 06:22:47;;;;;;;13.10;5.90;;;;;;;14.54;60.21;98190.48;104692;1287;22646;-82
2022/05/14 06:25:16;;;;;;;9.10;4.60;;;;;;;14.54;60.25;98185.32;104771;1287;22620;-83
2022/05/14 06:27:45;;;;;;;9.50;4.90;;;;;;;14.63;59.72;98184.14;104892;1288;22808;-83
2022/05/14 06:30:13;;;;;;;8.90;4.50;;;;;;;14.65;58.09;98186.04;105036;1289;23647;-83
2022/05/14 06:32:41;;;;;;;8.00;4.60;;;;;;;14.71;59.01;98185.61;104827;1287;25711;-83
2022/05/14 06:35:10;;;;;;;10.50;4.30;;;;;;;14.86;59.28;98183.25;105044;1287;22873;-83
2022/05/14 06:37:39;;;;;;;9.90;4.40;;;;;;;14.96;57.97;98185.03;104923;1289;23564;-83
2022/05/14 06:40:08;;;;;;;10.50;4.20;;;;;;;15.07;58.58;98180.13;105076;1287;22586;-84
2022/05/14 06:42:36;;;;;;;13.40;4.70;;;;;;;15.18;58.83;98180.77;105240;1287;23553;-83
2022/05/14 06:45:07;;;;;;;10.10;4.70;;;;;;;15.32;58.03;98180.77;105091;1288;24333;-82
2022/05/14 06:47:35;;;;;;;11.60;4.80;;;;;;;15.38;55.31;98183.64;105056;1287;23406;-84
2022/05/14 06:50:05;;;;;;;11.00;4.30;;;;;;;15.36;55.66;98182.49;104886;1290;25386;-84
2022/05/14 06:52:34;;;;;;;8.70;4.20;;;;;;;15.42;54.34;98188.38;104944;1289;22580;-82
2022/05/14 06:55:03;;;;;;;11.30;4.90;;;;;;;15.37;54.12;98187.83;105270;1287;24183;-84
2022/05/14 06:57:33;;;;;;;12.70;7.00;;;;;;;15.37;53.83;98191.36;104946;1287;22563;-83
2022/05/14 07:00:03;;;;;;;12.10;5.80;;;;;;;15.37;53.96;98189.90;104977;1288;22553;-83
2022/05/14 07:02:32;;;;;;;10.50;4.60;;;;;;;15.39;54.46;98191.37;104927;1289;22554;-82
2022/05/14 07:07:47;;;;;;;13.30;4.60;;;;;;;15.33;52.88;98201.12;104841;1287;25378;-84
2022/05/14 07:10:16;;;;;;;10.40;4.60;;;;;;;15.37;52.99;98207.25;104917;1287;26826;-83
2022/05/14 07:12:43;;;;;;;9.90;4.40;;;;;;;15.39;52.35;98206.02;105036;1287;25429;-83
2022/05/14 07:15:12;;;;;;;11.20;3.90;;;;;;;15.34;51.97;98205.27;105055;1287;25673;-83
2022/05/14 07:17:41;;;;;;;12.40;5.10;;;;;;;15.27;52.23;98206.30;105106;1287;22569;-83
2022/05/14 07:20:09;;;;;;;7.50;4.50;;;;;;;15.33;52.43;98204.53;104932;1288;23972;-82
2022/05/14 07:22:37;;;;;;;10.40;4.80;;;;;;;15.47;52.33;98210.33;105011;1287;24259;-84
2022/05/14 07:25:06;;;;;;;13.10;5.00;;;;;;;15.57;51.31;98210.61;105231;1287;26635;-84
2022/05/14 07:27:36;;;;;;;10.20;5.00;;;;;;;15.62;50.71;98209.80;105895;1287;22553;-83
2022/05/14 07:30:06;;;;;;;11.60;4.80;;;;;;;15.61;51.56;98209.84;105857;1289;24368;-83
2022/05/14 07:32:37;;;;;;;12.30;4.80;;;;;;;15.67;51.56;98214.20;104978;1288;22558;-84
2022/05/14 07:35:06;;;;;;;10.70;4.50;;;;;;;15.72;51.15;98212.55;104988;1288;22501;-85
2022/05/14 07:37:40;;;;;;;10.00;4.30;;;;;;;15.65;50.42;98218.25;105190;1287;22569;-84
2022/05/14 07:40:14;;;;;;;12.00;4.60;;;;;;;15.55;50.81;98215.31;105032;1287;24448;-85
2022/05/14 07:42:50;;;;;;;9.50;4.70;;;;;;;15.66;50.79;98213.63;105064;1287;25534;-84
2022/05/14 07:45:26;;;;;;;11.80;4.80;;;;;;;15.81;49.85;98208.97;105070;1287;23528;-84
2022/05/14 07:48:12;;;;;;;6.80;4.30;;;;;;;15.86;49.97;98212.70;104904;1287;22550;-83
2022/05/14 07:50:40;;;;;;;6.80;3.60;;;;;;;15.90;48.74;98212.14;104834;1287;22628;-83
2022/05/14 07:53:08;;;;;;;14.80;6.10;;;;;;;15.95;48.79;98213.48;104819;1287;22581;-84
2022/05/14 07:55:37;;;;;;;13.50;5.70;;;;;;;15.99;48.85;98214.28;105022;1287;22696;-83
2022/05/14 07:58:05;;;;;;;13.20;6.10;;;;;;;15.95;48.78;98221.13;105334;1287;22724;-83
2022/05/14 08:00:33;;;;;;;10.20;5.40;;;;;;;15.86;49.10;98213.30;104698;1290;22572;-83
2022/05/14 08:03:02;;;;;;;10.20;5.40;;;;;;;15.91;49.12;98212.52;104802;1287;22732;-84
2022/05/14 08:05:31;;;;;;;11.90;5.30;;;;;;;16.03;48.89;98209.11;105228;1287;22561;-84
2022/05/14 08:07:58;;;;;;;10.90;4.90;;;;;;;16.06;48.77;98212.70;104951;1289;22875;-83
2022/05/14 08:10:27;;;;;;;14.90;7.40;;;;;;;16.04;49.02;98211.02;105077;1287;22563;-83
2022/05/14 08:12:55;;;;;;;11.10;4.70;;;;;;;16.10;49.04;98214.13;105137;1287;22566;-81
2022/05/14 08:15:25;;;;;;;9.50;5.00;;;;;;;16.20;48.50;98213.95;104882;1288;22615;-83
2022/05/14 08:17:55;;;;;;;10.80;4.40;;;;;;;16.25;48.85;98212.84;105126;1287;24244;-83
2022/05/14 08:20:23;;;;;;;8.80;4.80;;;;;;;16.48;48.59;98212.48;104698;1287;22572;-84
2022/05/14 08:25:38;;;;;;;9.50;4.70;;;;;;;16.76;47.72;98207.52;104795;1287;24243;-84
2022/05/14 08:28:06;;;;;;;8.20;4.10;;;;;;;16.89;47.38;98204.77;104823;1287;22638;-83
2022/05/14 08:30:35;;;;;;;5.50;3.50;;;;;;;16.88;47.35;98201.45;105022;1290;22568;-83
2022/05/14 08:33:05;;;;;;;7.90;4.00;;;;;;;16.88;46.26;98200.80;105638;1287;22949;-84
2022/05/14 08:35:34;;;;;;;12.50;4.60;;;;;;;16.95;46.26;98200.20;106970;1287;24239;-83
2022/05/14 08:38:06;;;;;;;6.40;3.40;;;;;;;17.11;46.54;98201.13;106698;1287;23975;-80
2022/05/14 08:40:52;;;;;;;8.20;4.60;;;;;;;17.23;46.40;98196.08;106842;1287;22572;-82
2022/05/14 08:43:31;;;;;;;11.30;4.50;;;;;;;17.23;45.61;98200.94;106491;1287;24208;-86
2022/05/14 08:45:59;;;;;;;11.00;5.00;;;;;;;17.19;46.11;98192.98;105222;1288;25248;-83
2022/05/14 08:48:34;;;;;;;12.10;4.80;;;;;;;17.24;45.75;98194.27;105320;1287;22694;-85
2022/05/14 08:51:04;;;;;;;12.10;3.90;;;;;;;17.35;46.06;98184.82;105387;1288;22676;-86
2022/05/14 08:53:36;;;;;;;9.70;4.50;;;;;;;17.40;45.79;98183.86;105647;1287;22762;-87
2022/05/14 08:56:23;;;;;;;8.30;4.00;;;;;;;17.51;45.52;98181.27;105311;1287;22666;-85
2022/05/14 08:59:21;;;;;;;9.30;4.40;;;;;;;17.57;45.32;98179.58;105107;1287;23240;-87
2022/05/14 09:01:49;;;;;;;11.50;4.10;;;;;;;17.60;44.53;98179.61;105158;1287;24279;-85
2022/05/14 09:04:20;;;;;;;11.40;4.70;;;;;;;17.56;45.08;98183.38;104968;1287;25313;-86
2022/05/14 09:06:50;;;;;;;9.50;4.20;;;;;;;17.68;44.74;98179.52;105163;1287;22728;-85
2022/05/14 09:09:19;;;;;;;6.80;3.90;;;;;;;17.60;43.87;98181.65;104845;1287;22566;-86
2022/05/14 09:12:01;;;;;;;12.90;6.30;;;;;;;17.65;44.30;98171.23;105021;1287;25464;-84
2022/05/14 09:14:33;;;;;;;10.90;4.50;;;;;;;17.73;44.15;98174.84;105012;1287;22598;-86
2022/05/14 09:17:20;;;;;;;8.50;3.90;;;;;;;17.69;43.66;98171.45;104980;1287;23523;-84
2022/05/14 09:19:53;;;;;;;7.30;4.10;;;;;;;17.59;43.42;98168.61;105148;1287;24248;-85
2022/05/14 09:22:49;;;;;;;10.50;4.30;;;;;;;17.61;43.38;98179.66;104973;1288;22541;-85
2022/05/14 09:25:30;;;;;;;12.00;4.00;;;;;;;17.50;42.62;98170.04;104947;1287;24287;-85
2022/05/14 09:28:05;;;;;;;14.80;4.40;;;;;;;17.51;43.32;98166.23;104741;1287;22566;-87
2022/05/14 09:30:38;;;;;;;6.90;3.90;;;;;;;17.59;43.00;98162.86;104839;1287;24262;-87
2022/05/14 09:33:09;;;;;;;8.90;3.90;;;;;;;17.58;43.17;98162.04;104842;1287;25365;-86
2022/05/14 09:35:38;;;;;;;9.70;3.60;;;;;;;17.52;43.11;98159.60;105095;1287;23884;-86
2022/05/14 09:38:18;;;;;;;13.20;4.20;;;;;;;17.48;43.25;98164.96;105177;1287;22762;-86
2022/05/14 09:40:55;;;;;;;9.60;3.90;;;;;;;17.30;43.33;98158.91;105108;1287;22600;-84
2022/05/14 09:43:35;;;;;;;7.80;4.00;;;;;;;17.35;43.66;98158.52;105366;1287;22748;-85
2022/05/14 09:46:22;;;;;;;7.80;3.80;;;;;;;17.54;42.90;98161.83;106143;1287;22660;-86
2022/05/14 09:48:54;;;;;;;7.90;4.30;;;;;;;17.54;42.61;98166.34;104939;1287;25307;-87
2022/05/14 09:51:32;;;;;;;8.20;3.60;;;;;;;17.41;43.08;98158.27;105185;1287;22576;-85
2022/05/14 09:54:18;;;;;;;10.30;4.30;;;;;;;17.30;43.33;98156.64;105112;1287;23259;-88
2022/05/14 09:57:19;;;;;;;10.70;3.50;;;;;;;17.34;42.97;98163.23;105042;1287;22607;-85
2022/05/14 09:59:59;;;;;;;11.30;4.10;;;;;;;17.44;42.84;98155.84;105100;1287;25454;-85
2022/05/14 10:02:44;;;;;;;6.90;3.40;;;;;;;17.32;42.50;98162.80;105149;1287;24131;-86
2022/05/14 10:05:27;;;;;;;8.10;3.80;;;;;;;17.39;42.78;98154.71;105036;1289;22578;-85
2022/05/14 10:08:07;;;;;;;6.10;3.30;;;;;;;17.45;42.14;98156.63;105363;1287;23898;-85
2022/05/14 10:10:57;;;;;;;6.50;3.20;;;;;;;17.55;42.15;98157.65;105033;1287;22547;-84
2022/05/14 10:13:40;;;;;;;10.10;3.50;;;;;;;17.71;41.75;98152.81;105037;1288;24121;-86
2022/05/14 10:16:22;;;;;;;11.10;4.60;;;;;;;17.71;41.51;98146.19;105369;1287;22844;-85
2022/05/14 10:19:13;;;;;;;12.20;4.00;;;;;;;17.74;41.83;98151.05;105071;1288;284106;-83
2022/05/14 10:22:01;;;;;;;6.80;3.10;;;;;;;17.79;41.21;98147.19;105076;1287;24144;-86
2022/05/14 10:28:16;;;;;;;8.50;3.50;;;;;;;18.33;39.91;98144.75;105372;1287;22823;-86
2022/05/14 10:30:52;;;;;;;11.10;3.00;;;;;;;18.21;39.87;98136.66;105344;1287;22601;-83
2022/05/14 10:33:27;;;;;;;12.60;3.50;;;;;;;18.17;39.91;98136.10;104770;1288;22639;-85
2022/05/14 10:36:29;;;;;;;7.20;3.50;;;;;;;18.27;40.37;98136.84;104907;1287;25440;-85
2022/05/14 10:39:04;;;;;;;7.30;3.40;;;;;;;18.66;39.91;98123.86;104792;1288;22572;-84
2022/05/14 10:41:41;;;;;;;10.30;3.50;;;;;;;18.82;39.29;98124.61;104804;1287;24781;-83
2022/05/14 10:44:15;;;;;;;7.00;3.10;;;;;;;19.08;39.39;98122.25;104793;1287;22490;-83
2022/05/14 10:46:47;;;;;;;9.70;3.50;;;;;;;19.43;39.53;98106.39;105101;1287;25464;-86
2022/05/14 10:49:25;;;;;;;10.10;3.90;;;;;;;19.80;37.91;98105.36;105319;1287;22563;-85
2022/05/14 10:51:55;;;;;;;6.60;2.90;;;;;;;19.84;36.84;98106.78;105019;1287;22612;-85
2022/05/14 10:54:26;;;;;;;10.20;3.80;;;;;;;19.52;36.71;98112.49;105066;1287;22954;-85
2022/05/14 10:57:02;;;;;;;8.40;3.40;;;;;;;19.25;36.98;98120.83;104808;1287;25842;-83
2022/05/14 10:59:51;;;;;;;8.70;3.30;;;;;;;18.95;37.36;98126.36;105044;1287;22575;-84
2022/05/14 11:02:57;;;;;;;13.70;4.00;;;;;;;18.77;37.74;98108.61;104928;1287;24444;-84
2022/05/14 11:05:50;;;;;;;6.80;3.20;;;;;;;18.63;37.98;98104.30;104992;1287;25507;-84
2022/05/14 11:08:40;;;;;;;14.00;3.70;;;;;;;18.46;38.50;98104.35;104840;1287;24364;-84
2022/05/14 11:11:14;;;;;;;9.20;3.40;;;;;;;18.47;39.08;98103.53;105212;1287;22662;-86
2022/05/14 11:13:55;;;;;;;10.50;3.80;;;;;;;18.60;38.60;98103.73;104745;1287;22644;-83
2022/05/14 11:16:44;;;;;;;11.30;4.00;;;;;;;18.73;38.81;98105.08;104930;1287;23304;-84
2022/05/14 11:19:33;;;;;;;10.70;3.30;;;;;;;18.73;38.57;98099.20;105073;1287;25322;-84
2022/05/14 11:22:02;;;;;;;7.30;3.50;;;;;;;18.70;38.89;98100.84;104907;1287;24187;-83
2022/05/14 11:24:40;;;;;;;9.20;3.90;;;;;;;18.84;38.89;98095.95;105135;1287;22591;-86
2022/05/14 11:27:09;;;;;;;6.80;3.30;;;;;;;18.84;38.69;98095.79;105143;1287;22579;-86
2022/05/14 11:29:52;;;;;;;9.20;3.50;;;;;;;18.74;38.79;98094.09;105241;1287;25667;-85
2022/05/14 11:32:22;;;;;;;9.80;3.60;;;;;;;18.62;38.44;98094.67;105127;1287;24401;-85
2022/05/14 11:34:57;;;;;;;9.50;3.60;;;;;;;18.58;38.65;98092.02;105228;1287;22566;-84
2022/05/14 11:37:43;;;;;;;10.90;4.10;;;;;;;18.68;38.86;98092.52;104825;1287;25467;-83
2022/05/14 11:40:20;;;;;;;9.80;3.80;;;;;;;18.71;38.96;98087.70;104866;1287;23147;-86
2022/05/14 11:42:53;;;;;;;7.50;3.90;;;;;;;18.71;38.91;98088.75;104781;1287;24435;-85
2022/05/14 11:45:26;;;;;;;10.30;3.60;;;;;;;18.58;38.92;98087.84;104888;1287;25536;-84
2022/05/14 11:48:19;;;;;;;9.90;3.80;;;;;;;18.49;38.81;98094.54;104904;1288;25086;-85
2022/05/14 11:51:13;;;;;;;10.10;3.90;;;;;;;18.41;38.92;98089.88;105162;1287;22556;-84
2022/05/14 11:53:48;;;;;;;14.10;5.90;;;;;;;18.36;39.22;98090.90;105148;1287;22691;-83
2022/05/14 11:56:30;;;;;;;9.90;4.00;;;;;;;18.37;39.18;98091.30;104886;1289;24123;-85
2022/05/14 11:59:06;;;;;;;7.60;3.80;;;;;;;18.51;39.24;98088.82;104844;1287;23149;-85
2022/05/14 12:01:39;;;;;;;6.80;3.50;;;;;;;18.79;38.27;98100.42;104907;1287;22635;-86
2022/05/14 12:04:16;;;;;;;11.80;4.30;;;;;;;18.83;38.07;98092.42;105124;1287;25430;-86
2022/05/14 12:07:08;;;;;;;12.60;4.30;;;;;;;18.81;37.98;98086.17;105129;1287;24250;-85